»·PEaware :: N2RF L45-KSNA

N2RF :: L45-KSNA

FLIGHT INFORMATION

Flight Status: Arrived
Operator: Privately registered:
United States
More flights under this callsign
Pilot: Max W. (2591)
Aircraft: SOCATA TBM-900
(TBM9)
More flights by this aircraft type
Origin: L45 Bakersfield Mun
United States
Destination: KSNA John Wayne-Orange Co
United States
More flights between these airports :: More routes between these airports
Route: +REESR OHSEA2
File this flight plan on PilotEdge
Remarks: EVENING TOBY BEST CFI IN THE BIZ!
Altitude:
(Current/Filed)
21,000ft
Speed:
(Current/Filed)
280kts
Departed: 30-Sep-19 06:05 PM
Arrived: 30-Sep-19 06:43 PM
Distance/Time
Traveled:
511nm/0:38
Distance/Time
To Go:
Arrived

Flight Plot

Page will automatically refresh every two minutes.

Flight plan parsing failed; only flown route is shown


Map Options




Map Legend


Flown Route
Filed Route
Departure Airport
Arrival Airport
Navaid (VOR, NDB)
Fix

Horizontal Profiles

Position Reports

Time Latitude Longitude Heading Altitude Ground
Speed
30-Sep-19 17:38 34.265064 -116.847935 178 6754ft 0kts
30-Sep-19 17:39 34.265064 -116.847935 178 6754ft 0kts
30-Sep-19 17:40 34.265064 -116.847935 178 6754ft 0kts
30-Sep-19 17:44 35.325703 -118.997784 90 380ft 0kts
30-Sep-19 17:45 35.325703 -118.997784 90 380ft 0kts
30-Sep-19 17:46 35.325703 -118.997784 90 380ft 0kts
30-Sep-19 17:47 35.325703 -118.997784 90 380ft 0kts
30-Sep-19 17:48 35.325703 -118.997784 90 380ft 0kts
30-Sep-19 17:49 35.325703 -118.997784 90 380ft 0kts
30-Sep-19 17:50 35.325703 -118.997784 90 380ft 0kts
30-Sep-19 17:51 35.325703 -118.997784 90 380ft 0kts
30-Sep-19 17:52 35.325703 -118.997784 90 380ft 0kts
30-Sep-19 17:53 35.325703 -118.997784 90 380ft 0kts
30-Sep-19 17:54 35.325703 -118.997784 90 380ft 0kts
30-Sep-19 17:55 35.325756 -118.997425 57 380ft 4kts
30-Sep-19 17:56 35.323128 -118.996666 176 378ft 23kts
30-Sep-19 17:57 35.322904 -118.996653 178 378ft 0kts
30-Sep-19 17:58 35.322536 -118.996597 172 378ft 12kts
30-Sep-19 17:59 35.319700 -118.996283 177 376ft 20kts
30-Sep-19 18:00 35.319427 -118.996197 110 375ft 0kts
30-Sep-19 18:01 35.319427 -118.996197 110 375ft 0kts
30-Sep-19 18:02 35.319427 -118.996197 110 375ft 0kts
30-Sep-19 18:03 35.319408 -118.996128 105 375ft 1kts
30-Sep-19 18:04 35.336297 -118.997682 347 1687ft 75kts
30-Sep-19 18:05 35.327370 -119.019000 247 4052ft 92kts
30-Sep-19 18:06 35.317882 -119.045591 230 6278ft 113kts
30-Sep-19 18:07 35.283553 -119.055037 197 9179ft 132kts
30-Sep-19 18:08 35.246720 -119.063067 198 11713ft 138kts
30-Sep-19 18:09 35.200651 -119.073844 196 13084ft 230kts
30-Sep-19 18:10 35.151888 -119.084227 203 16868ft 153kts
30-Sep-19 18:11 35.109539 -119.093731 205 19579ft 160kts
30-Sep-19 18:12 35.060764 -119.104924 201 21076ft 232kts
30-Sep-19 18:13 34.988448 -119.120679 199 21028ft 283kts
30-Sep-19 18:14 34.908959 -119.138091 198 21018ft 292kts
30-Sep-19 18:15 34.833824 -119.154581 198 21008ft 292kts
30-Sep-19 18:16 34.753436 -119.172202 198 20984ft 295kts
30-Sep-19 18:17 34.672752 -119.135400 159 20972ft 323kts
30-Sep-19 18:18 34.593218 -119.084829 159 20971ft 323kts
30-Sep-19 18:19 34.513567 -119.033462 158 20972ft 323kts
30-Sep-19 18:20 34.434458 -118.982065 158 20973ft 321kts
30-Sep-19 18:21 34.356315 -118.930177 158 20973ft 318kts
30-Sep-19 18:22 34.278730 -118.878756 158 20972ft 315kts
30-Sep-19 18:23 34.200469 -118.834517 169 20980ft 304kts
30-Sep-19 18:24 34.120269 -118.802838 168 20985ft 302kts
30-Sep-19 18:25 34.039882 -118.771502 168 20331ft 314kts
30-Sep-19 18:26 33.962534 -118.741481 167 16473ft 270kts
30-Sep-19 18:27 33.891052 -118.713876 166 15420ft 298kts
30-Sep-19 18:28 33.809841 -118.682476 166 14074ft 307kts
30-Sep-19 18:29 33.729710 -118.652119 167 12975ft 293kts
30-Sep-19 18:30 33.654249 -118.625457 167 12993ft 275kts
30-Sep-19 18:31 33.586437 -118.587604 125 12780ft 292kts
30-Sep-19 18:32 33.539860 -118.499743 124 10176ft 314kts
30-Sep-19 18:33 33.520243 -118.410157 91 6990ft 266kts
30-Sep-19 18:34 33.535470 -118.322712 68 6135ft 293kts
30-Sep-19 18:35 33.564216 -118.230128 68 4972ft 285kts
30-Sep-19 18:36 33.591055 -118.143358 68 4965ft 271kts
30-Sep-19 18:37 33.617145 -118.058800 68 4963ft 268kts
30-Sep-19 18:38 33.671342 -118.001874 31 4966ft 263kts
30-Sep-19 18:39 33.732205 -117.952553 31 4968ft 263kts
30-Sep-19 18:40 33.744707 -117.899048 154 2670ft 249kts
30-Sep-19 18:41 33.699211 -117.860864 142 846ft 110kts
30-Sep-19 18:42 33.678910 -117.864983 212 59ft 37kts
30-Sep-19 18:43 33.677461 -117.866986 297 59ft 15kts
30-Sep-19 18:44 33.678614 -117.868774 116 59ft 0kts
30-Sep-19 18:45 33.678614 -117.868774 116 59ft 0kts
30-Sep-19 18:46 33.678614 -117.868774 116 59ft 0kts
30-Sep-19 18:47 33.678614 -117.868774 116 59ft 0kts
30-Sep-19 18:56 43.565313 -116.211035 272 2860ft 0kts

Navigation Log

Ident Type
Flight plan parsing failed, navigation log unavailable